Time;durP1;ratioP1;P1;durP2;ratioP2;P2;SDS_P1;SDS_P2;PMS_P1;PMS_P2;Temp;Humidity;BMP_temperature;BMP_pressure;BME280_temperature;BME280_humidity;BME280_pressure;Samples;Min_cycle;Max_cycle;Signal;HPM_P1;HPM_P2
2021/09/14 00:02:03;;;;;;;21.40;14.53;;;18.70;99.90;;;;;;5070977;28;20376;-54
2021/09/14 00:04:29;;;;;;;20.00;13.73;;;18.70;99.90;;;;;;5070386;28;20387;-55
2021/09/14 00:06:55;;;;;;;16.88;13.20;;;18.60;99.90;;;;;;5070660;28;20467;-54
2021/09/14 00:09:20;;;;;;;19.43;13.90;;;18.60;99.90;;;;;;5070852;28;20479;-54
2021/09/14 00:11:46;;;;;;;20.27;13.37;;;18.60;99.90;;;;;;5070052;28;20389;-54
2021/09/14 00:14:12;;;;;;;19.58;14.43;;;18.60;99.90;;;;;;5070762;28;20961;-54
2021/09/14 00:16:37;;;;;;;20.65;13.38;;;18.50;99.90;;;;;;5070131;28;20445;-54
2021/09/14 00:19:04;;;;;;;20.97;13.87;;;18.50;99.90;;;;;;5070939;28;20782;-54
2021/09/14 00:21:31;;;;;;;18.75;13.15;;;18.50;99.90;;;;;;5069797;28;20493;-55
2021/09/14 00:23:57;;;;;;;20.20;13.02;;;18.50;99.90;;;;;;5069988;28;20396;-54
2021/09/14 00:26:23;;;;;;;17.40;12.38;;;18.60;99.90;;;;;;5070501;28;20372;-54
2021/09/14 00:28:48;;;;;;;17.63;13.33;;;18.50;99.90;;;;;;5069639;28;20440;-54
2021/09/14 00:31:14;;;;;;;16.63;12.10;;;18.50;99.90;;;;;;5070302;28;20738;-54
2021/09/14 00:33:39;;;;;;;16.47;11.77;;;18.50;99.90;;;;;;5069603;28;20425;-54
2021/09/14 00:36:05;;;;;;;17.08;12.00;;;18.50;99.90;;;;;;5070113;28;20384;-54
2021/09/14 00:38:31;;;;;;;17.90;12.18;;;18.40;99.90;;;;;;5069447;28;20384;-54
2021/09/14 00:40:56;;;;;;;19.57;12.17;;;18.50;99.90;;;;;;5070290;28;20459;-54
2021/09/14 00:43:23;;;;;;;16.53;12.20;;;18.40;99.90;;;;;;5069807;28;20384;-54
2021/09/14 00:45:50;;;;;;;16.52;10.60;;;18.30;99.90;;;;;;5069308;28;20513;-54
2021/09/14 00:48:16;;;;;;;15.52;11.48;;;18.30;99.90;;;;;;5069956;28;20391;-54
2021/09/14 00:50:42;;;;;;;15.13;10.20;;;18.20;99.90;;;;;;5068836;28;20384;-54
2021/09/14 00:53:08;;;;;;;13.77;9.80;;;18.10;99.90;;;;;;5069505;28;20730;-54
2021/09/14 00:55:34;;;;;;;14.80;9.80;;;18.10;99.90;;;;;;5068607;28;20470;-54
2021/09/14 00:58:00;;;;;;;13.23;9.73;;;18.10;99.90;;;;;;5069861;28;20388;-54
2021/09/14 01:00:26;;;;;;;13.63;10.20;;;18.00;99.90;;;;;;5069793;28;20398;-54
2021/09/14 01:02:52;;;;;;;15.68;10.93;;;17.90;99.90;;;;;;5067957;28;20395;-54
2021/09/14 01:05:18;;;;;;;18.17;10.20;;;17.90;99.90;;;;;;5069869;28;20479;-54
2021/09/14 01:07:45;;;;;;;16.40;10.48;;;17.80;99.90;;;;;;5069044;28;20376;-54
2021/09/14 01:10:12;;;;;;;15.57;10.18;;;17.70;99.90;;;;;;5069638;28;20419;-54
2021/09/14 01:12:39;;;;;;;14.00;10.10;;;17.60;99.90;;;;;;5069015;28;20492;-54
2021/09/14 01:15:06;;;;;;;14.30;10.88;;;17.60;99.90;;;;;;5069766;28;20411;-54
2021/09/14 01:17:32;;;;;;;15.85;11.38;;;17.70;99.90;;;;;;5068734;28;20407;-54
2021/09/14 01:19:58;;;;;;;14.83;11.30;;;17.70;99.90;;;;;;5069462;28;20459;-54
2021/09/14 01:22:31;;;;;;;15.83;10.90;;;17.70;99.90;;;;;;5069819;28;20380;-54
2021/09/14 01:24:57;;;;;;;15.65;11.35;;;17.70;99.90;;;;;;5069429;28;20416;-54
2021/09/14 01:27:23;;;;;;;17.45;10.88;;;17.70;99.90;;;;;;5069467;28;20367;-54
2021/09/14 01:32:33;;;;;;;17.25;12.35;;;17.60;99.90;;;;;;5068703;28;20425;-54
2021/09/14 01:35:32;;;;;;;17.77;10.97;;;17.50;99.90;;;;;;5069069;28;20450;-54
2021/09/14 01:37:58;;;;;;;17.77;12.48;;;17.50;99.90;;;;;;5056759;28;20399;-54
2021/09/14 01:40:24;;;;;;;16.63;12.27;;;17.50;99.90;;;;;;5069673;28;20368;-54
2021/09/14 01:42:50;;;;;;;17.23;11.82;;;17.40;99.90;;;;;;5068571;28;20388;-54
2021/09/14 01:45:16;;;;;;;15.40;11.63;;;17.40;99.90;;;;;;5069228;28;20444;-54
2021/09/14 01:47:43;;;;;;;19.55;13.30;;;17.40;99.90;;;;;;5068461;28;20842;-54
2021/09/14 01:50:10;;;;;;;19.02;13.60;;;17.30;99.90;;;;;;5069268;28;20498;-54
2021/09/14 01:52:36;;;;;;;17.17;12.98;;;17.30;99.90;;;;;;5068602;28;20380;-54
2021/09/14 01:55:07;;;;;;;17.77;13.07;;;17.40;99.90;;;;;;5069144;28;20857;-54
2021/09/14 01:57:35;;;;;;;16.45;13.02;;;17.40;99.90;;;;;;5068856;28;20376;-54
2021/09/14 02:00:08;;;;;;;21.92;12.85;;;17.30;99.90;;;;;;5069381;28;20391;-54
2021/09/14 02:58:55;;;;;;;22.83;16.52;;;16.80;99.90;;;;;;5071029;28;20463;-54
2021/09/14 03:01:22;;;;;;;25.17;16.97;;;16.70;99.90;;;;;;5071660;28;20391;-54
2021/09/14 03:03:49;;;;;;;25.55;16.85;;;16.90;99.90;;;;;;5069448;28;20398;-54
2021/09/14 03:06:18;;;;;;;22.15;16.67;;;16.90;99.90;;;;;;5071897;28;20448;-54
2021/09/14 03:08:44;;;;;;;23.50;16.00;;;17.00;99.90;;;;;;5070900;28;20376;-54
2021/09/14 03:11:12;;;;;;;26.08;15.77;;;17.00;99.90;;;;;;5071640;28;20376;-54
2021/09/14 03:13:39;;;;;;;22.98;16.00;;;17.10;99.90;;;;;;5070771;28;20451;-54
2021/09/14 03:16:06;;;;;;;22.80;15.20;;;17.10;99.90;;;;;;5071525;28;20490;-54
2021/09/14 03:18:32;;;;;;;21.67;16.08;;;17.10;99.90;;;;;;5070473;28;20403;-54
2021/09/14 03:20:58;;;;;;;25.80;17.07;;;17.10;99.90;;;;;;5070947;28;20796;-54
2021/09/14 03:23:23;;;;;;;21.98;15.43;;;17.00;99.90;;;;;;5071463;28;20402;-54
2021/09/14 03:25:50;;;;;;;23.33;15.93;;;17.10;99.90;;;;;;5070227;28;20415;-54
2021/09/14 03:28:16;;;;;;;22.15;16.13;;;17.10;99.90;;;;;;5071396;28;20438;-54
2021/09/14 03:30:43;;;;;;;22.77;15.25;;;17.00;99.90;;;;;;5070592;28;20387;-54
2021/09/14 03:33:09;;;;;;;21.30;15.73;;;17.00;99.90;;;;;;5071187;28;20384;-54
2021/09/14 03:35:36;;;;;;;21.13;14.60;;;17.00;99.90;;;;;;5070746;28;20408;-55
2021/09/14 03:38:02;;;;;;;22.13;15.50;;;17.00;99.90;;;;;;5071396;28;20380;-54
2021/09/14 03:40:27;;;;;;;20.23;15.03;;;17.10;99.90;;;;;;5071487;28;20471;-54
2021/09/14 03:42:53;;;;;;;21.20;15.02;;;17.10;99.90;;;;;;5070497;28;21023;-54
2021/09/14 03:45:19;;;;;;;21.33;15.13;;;17.10;99.90;;;;;;5071447;28;20388;-54
2021/09/14 03:47:44;;;;;;;22.27;14.77;;;17.20;99.90;;;;;;5069858;28;20423;-54
2021/09/14 03:50:11;;;;;;;21.38;14.32;;;17.20;99.90;;;;;;5069468;28;20388;-54
2021/09/14 03:52:36;;;;;;;21.00;14.40;;;17.10;99.90;;;;;;5070193;28;20853;-54
2021/09/14 03:55:03;;;;;;;22.00;14.73;;;17.10;99.90;;;;;;5070969;28;20439;-54
2021/09/14 03:57:28;;;;;;;19.95;13.70;;;17.00;99.90;;;;;;5066800;28;20395;-54
2021/09/14 03:59:55;;;;;;;20.07;13.90;;;16.90;99.90;;;;;;5049862;28;20411;-54
2021/09/14 04:05:27;;;;;;;17.42;13.95;;;16.90;99.90;;;;;;5050577;28;20388;-54
2021/09/14 04:10:38;;;;;;;19.02;13.23;;;17.00;99.90;;;;;;5058943;28;20441;-54
2021/09/14 04:13:04;;;;;;;18.65;13.80;;;17.00;99.90;;;;;;5065840;28;20388;-54
2021/09/14 04:15:30;;;;;;;20.80;14.68;;;17.00;99.90;;;;;;5068459;28;20424;-54
2021/09/14 04:17:55;;;;;;;18.88;12.60;;;17.00;99.90;;;;;;5059181;28;20547;-54
2021/09/14 04:20:21;;;;;;;18.57;13.17;;;17.00;99.90;;;;;;5050822;28;20385;-53
2021/09/14 04:22:47;;;;;;;19.27;12.52;;;17.00;99.90;;;;;;5049717;28;20408;-54
2021/09/14 04:25:13;;;;;;;19.88;13.68;;;17.00;99.90;;;;;;5050803;28;20531;-54
2021/09/14 04:27:39;;;;;;;17.35;12.43;;;17.00;99.90;;;;;;5049646;28;20381;-54
2021/09/14 04:30:06;;;;;;;18.95;12.70;;;17.00;99.90;;;;;;5050089;28;20735;-54
2021/09/14 04:32:32;;;;;;;16.50;12.25;;;17.00;99.90;;;;;;5053262;28;20399;-56
2021/09/14 04:34:58;;;;;;;17.73;12.63;;;17.00;99.90;;;;;;5064972;28;20925;-54
2021/09/14 04:37:24;;;;;;;17.47;12.80;;;17.10;99.90;;;;;;5069554;28;20384;-54
2021/09/14 04:39:51;;;;;;;18.13;13.18;;;17.10;99.90;;;;;;5069274;28;20401;-54
2021/09/14 04:42:16;;;;;;;18.70;12.45;;;17.20;99.90;;;;;;5070121;28;20375;-54
2021/09/14 04:44:43;;;;;;;17.50;11.63;;;17.30;99.90;;;;;;5069391;28;20734;-54
2021/09/14 04:47:09;;;;;;;18.40;12.20;;;17.30;99.90;;;;;;5070151;28;20462;-53
2021/09/14 04:49:34;;;;;;;18.37;12.43;;;17.30;99.90;;;;;;5069890;28;20440;-53
2021/09/14 04:52:05;;;;;;;18.88;13.00;;;19.00;99.90;;;;;;5069285;28;20446;-53
2021/09/14 04:54:31;;;;;;;20.05;13.20;;;17.30;99.90;;;;;;5070060;28;20506;-53
2021/09/14 04:56:56;;;;;;;20.17;13.18;;;17.30;99.90;;;;;;5067876;28;20548;-54
2021/09/14 04:59:22;;;;;;;20.00;13.27;;;17.40;99.90;;;;;;5066163;28;20466;-53
2021/09/14 05:01:47;;;;;;;19.70;13.57;;;17.10;99.90;;;;;;5068641;28;20841;-53
2021/09/14 05:04:13;;;;;;;19.60;12.80;;;16.90;99.90;;;;;;5068440;28;20398;-53
2021/09/14 05:06:39;;;;;;;20.10;13.80;;;16.90;99.90;;;;;;5068119;28;20384;-53
2021/09/14 05:09:04;;;;;;;20.65;14.73;;;16.90;99.90;;;;;;5070256;28;20383;-53
2021/09/14 05:11:30;;;;;;;18.33;13.90;;;16.80;99.90;;;;;;5070534;28;20857;-53
2021/09/14 05:13:56;;;;;;;21.87;14.80;;;16.80;99.90;;;;;;5069348;28;20950;-53
2021/09/14 05:16:21;;;;;;;19.80;13.93;;;16.80;99.90;;;;;;5074694;28;20393;-53
2021/09/14 05:18:49;;;;;;;19.25;13.70;;;16.80;99.90;;;;;;5070529;28;20469;-53
2021/09/14 05:21:14;;;;;;;22.52;13.85;;;16.80;99.90;;;;;;5062501;28;20395;-53
2021/09/14 05:23:40;;;;;;;21.20;14.60;;;16.90;99.90;;;;;;5069673;28;20391;-53
2021/09/14 05:26:06;;;;;;;20.25;12.95;;;17.00;99.90;;;;;;5070817;28;20429;-53
2021/09/14 05:28:35;;;;;;;18.60;13.30;;;17.10;99.90;;;;;;5071290;28;20864;-53
2021/09/14 05:31:01;;;;;;;19.30;13.48;;;17.20;99.90;;;;;;5068813;28;20379;-53
2021/09/14 05:33:28;;;;;;;19.37;13.37;;;17.30;99.90;;;;;;5070187;28;20390;-53
2021/09/14 05:35:55;;;;;;;20.30;13.37;;;17.30;99.90;;;;;;5074794;28;20408;-53
2021/09/14 05:38:24;;;;;;;22.02;13.25;;;17.40;99.90;;;;;;5063572;28;20390;-53
2021/09/14 05:40:54;;;;;;;17.05;12.90;;;17.50;99.90;;;;;;5093805;28;20422;-54
2021/09/14 05:43:25;;;;;;;19.47;12.90;;;17.60;99.90;;;;;;5097230;28;20370;-54
2021/09/14 05:45:51;;;;;;;18.25;12.70;;;17.60;99.90;;;;;;5096072;28;20436;-54
2021/09/14 05:48:17;;;;;;;18.37;13.50;;;17.80;99.90;;;;;;5087727;28;20911;-54
2021/09/14 05:50:43;;;;;;;17.90;12.67;;;17.90;99.90;;;;;;5070026;28;20741;-54
2021/09/14 05:53:08;;;;;;;20.48;12.82;;;17.90;99.90;;;;;;5076093;28;20391;-53
2021/09/14 05:55:40;;;;;;;18.33;12.80;;;18.00;99.90;;;;;;5074875;28;20411;-54
2021/09/14 05:58:07;;;;;;;20.60;13.15;;;18.00;99.90;;;;;;5075898;28;20383;-54
2021/09/14 06:00:34;;;;;;;19.10;12.50;;;18.10;99.90;;;;;;5075905;28;20379;-57
2021/09/14 06:03:00;;;;;;;18.60;12.10;;;18.20;99.90;;;;;;5075964;28;20871;-53
2021/09/14 06:05:26;;;;;;;20.47;12.87;;;18.40;99.90;;;;;;5075903;28;20411;-54
2021/09/14 06:07:51;;;;;;;16.25;12.15;;;18.70;99.90;;;;;;5075472;28;20387;-54
2021/09/14 06:10:17;;;;;;;18.23;11.70;;;19.40;99.90;;;;;;5075488;28;20371;-54
2021/09/14 06:12:43;;;;;;;16.50;11.00;;;20.50;99.90;;;;;;5075039;28;20445;-54
2021/09/14 06:15:09;;;;;;;17.87;11.43;;;21.90;99.90;;;;;;5075203;28;20418;-54
2021/09/14 06:17:36;;;;;;;14.98;10.00;;;23.30;99.90;;;;;;5074996;28;20411;-55
2021/09/14 06:20:03;;;;;;;16.77;10.60;;;24.20;99.90;;;;;;5075070;28;20382;-55
2021/09/14 06:22:29;;;;;;;13.57;9.95;;;25.10;99.90;;;;;;5075887;28;20729;-54
2021/09/14 06:24:54;;;;;;;14.20;9.50;;;25.90;99.90;;;;;;5074396;28;20398;-55
2021/09/14 06:27:20;;;;;;;15.73;10.23;;;26.50;99.90;;;;;;5075564;28;20856;-55
2021/09/14 06:29:48;;;;;;;14.85;10.10;;;27.00;99.90;;;;;;5073899;28;20418;-55
2021/09/14 06:32:13;;;;;;;14.73;9.70;;;27.10;99.90;;;;;;5075060;28;20379;-55
2021/09/14 06:34:39;;;;;;;16.00;10.40;;;27.20;99.90;;;;;;5074687;28;20457;-55
2021/09/14 06:37:06;;;;;;;16.90;11.30;;;26.60;99.90;;;;;;5075401;28;20390;-55
2021/09/14 06:39:32;;;;;;;16.77;11.20;;;26.40;99.90;;;;;;5075132;28;20907;-55
2021/09/14 06:41:58;;;;;;;19.55;11.40;;;26.50;99.90;;;;;;5074709;28;20379;-55
2021/09/14 06:44:23;;;;;;;17.17;10.80;;;26.50;99.90;;;;;;5075370;28;20422;-55
2021/09/14 06:46:50;;;;;;;16.23;10.30;;;27.00;99.90;;;;;;5074154;28;20488;-55
2021/09/14 06:49:16;;;;;;;13.65;10.18;;;27.60;99.90;;;;;;5075267;28;20468;-55
2021/09/14 06:51:42;;;;;;;15.03;10.00;;;27.80;99.90;;;;;;5071679;28;20409;-55
2021/09/14 06:54:08;;;;;;;15.13;10.50;;;28.30;99.90;;;;;;5072036;28;20801;-55
2021/09/14 06:56:34;;;;;;;13.48;10.13;;;29.00;99.90;;;;;;5071112;28;20396;-55
2021/09/14 06:58:59;;;;;;;14.95;10.00;;;29.30;99.90;;;;;;5069723;28;20512;-55
2021/09/14 07:01:26;;;;;;;12.85;10.35;;;29.60;99.90;;;;;;5071667;28;20375;-55
2021/09/14 07:03:53;;;;;;;14.80;11.50;;;30.10;98.10;;;;;;5071110;28;20518;-55
2021/09/14 07:06:19;;;;;;;13.02;9.02;;;30.20;97.50;;;;;;5071717;28;20451;-55
2021/09/14 07:08:44;;;;;;;14.15;9.60;;;29.80;98.10;;;;;;5070961;28;20379;-55
2021/09/14 07:11:10;;;;;;;13.93;8.95;;;29.80;97.70;;;;;;5071703;28;20409;-55
2021/09/14 07:13:36;;;;;;;13.63;9.30;;;30.40;96.90;;;;;;5071670;28;20387;-55
2021/09/14 07:16:01;;;;;;;14.05;8.48;;;30.40;95.80;;;;;;5071065;28;20754;-55
2021/09/14 07:18:27;;;;;;;12.63;9.25;;;30.00;96.00;;;;;;5071609;28;20441;-55
2021/09/14 07:20:53;;;;;;;15.40;9.30;;;29.90;95.60;;;;;;5070538;28;20428;-55
2021/09/14 07:23:20;;;;;;;14.23;8.80;;;29.70;95.60;;;;;;5071356;28;20379;-55
2021/09/14 07:25:46;;;;;;;13.85;9.70;;;29.60;96.10;;;;;;5070375;28;20392;-55
2021/09/14 07:28:12;;;;;;;13.93;9.27;;;30.30;94.90;;;;;;5071502;28;20752;-55
2021/09/14 07:30:38;;;;;;;14.90;9.30;;;30.90;93.40;;;;;;5071410;28;20405;-56
2021/09/14 07:33:04;;;;;;;12.20;9.05;;;30.90;93.80;;;;;;5071411;28;20791;-56
2021/09/14 07:35:31;;;;;;;15.38;10.40;;;32.00;92.00;;;;;;5071671;28;20404;-54
2021/09/14 07:38:00;;;;;;;14.73;8.90;;;32.60;90.10;;;;;;5070857;28;20779;-54
2021/09/14 07:40:26;;;;;;;11.80;9.55;;;33.20;87.80;;;;;;5071278;28;20380;-54
2021/09/14 07:42:55;;;;;;;16.60;9.88;;;33.30;85.10;;;;;;5070544;28;20379;-54
2021/09/14 07:45:22;;;;;;;12.32;8.65;;;33.90;82.70;;;;;;5071195;28;20380;-54
2021/09/14 07:47:48;;;;;;;12.60;8.67;;;33.80;78.90;;;;;;5070949;28;20396;-54
2021/09/14 07:50:14;;;;;;;12.52;8.73;;;33.80;78.60;;;;;;5071545;28;20399;-54
2021/09/14 07:52:40;;;;;;;14.60;9.30;;;33.60;78.80;;;;;;5070565;28;20376;-54
2021/09/14 07:55:06;;;;;;;17.10;8.97;;;33.60;77.90;;;;;;5070977;28;20888;-54
2021/09/14 07:57:32;;;;;;;11.57;8.30;;;33.10;78.50;;;;;;5071038;28;20452;-54
2021/09/14 07:59:58;;;;;;;14.70;8.43;;;33.00;78.40;;;;;;5069539;28;20909;-54
2021/09/14 08:02:25;;;;;;;13.18;8.38;;;32.70;77.60;;;;;;5070499;28;20376;-54
2021/09/14 08:04:51;;;;;;;12.67;8.10;;;32.70;78.10;;;;;;5069516;28;20861;-54
2021/09/14 08:07:17;;;;;;;11.15;7.75;;;33.00;77.40;;;;;;5070927;28;20383;-54
2021/09/14 08:09:43;;;;;;;13.95;8.20;;;33.60;75.80;;;;;;5069663;28;20380;-55
2021/09/14 08:12:08;;;;;;;12.68;7.80;;;34.00;74.30;;;;;;5070286;28;20411;-55
2021/09/14 08:14:34;;;;;;;14.10;8.82;;;33.90;72.40;;;;;;5070072;28;20869;-55
2021/09/14 08:17:00;;;;;;;10.70;7.80;;;33.50;73.30;;;;;;5069506;28;20875;-55
2021/09/14 08:19:26;;;;;;;14.63;8.57;;;33.60;73.10;;;;;;5070077;28;20426;-55
2021/09/14 08:21:53;;;;;;;11.20;8.10;;;33.90;72.10;;;;;;5068966;28;20412;-55
2021/09/14 08:24:20;;;;;;;13.13;9.10;;;34.40;72.40;;;;;;5070674;28;20380;-55
2021/09/14 08:26:45;;;;;;;18.05;9.60;;;35.20;69.50;;;;;;5069336;28;20403;-56
2021/09/14 08:29:11;;;;;;;11.98;8.25;;;35.10;68.60;;;;;;5070463;28;20850;-56
2021/09/14 08:31:37;;;;;;;11.77;8.13;;;36.00;65.70;;;;;;5070187;28;20403;-55
2021/09/14 08:34:03;;;;;;;11.17;7.93;;;36.20;64.10;;;;;;5069525;28;20841;-56
2021/09/14 08:36:29;;;;;;;10.33;8.37;;;35.70;66.00;;;;;;5070161;28;20439;-56
2021/09/14 08:38:55;;;;;;;13.07;8.52;;;35.00;67.20;;;;;;5069248;28;20388;-56
2021/09/14 08:41:21;;;;;;;13.60;12.30;;;35.30;66.70;;;;;;5069978;28;20437;-56
2021/09/14 08:43:48;;;;;;;12.10;7.20;;;35.10;64.40;;;;;;5068891;28;20380;-55
2021/09/14 08:46:20;;;;;;;11.70;6.80;;;35.20;62.60;;;;;;5069614;28;20391;-55
2021/09/14 08:48:47;;;;;;;11.47;7.30;;;36.00;61.20;;;;;;5068730;28;20390;-56
2021/09/14 08:51:12;;;;;;;11.30;7.05;;;36.20;61.30;;;;;;5069371;28;20392;-56
2021/09/14 08:53:38;;;;;;;11.05;6.80;;;35.90;59.80;;;;;;5069721;28;20380;-56
2021/09/14 08:56:07;;;;;;;10.57;7.20;;;34.60;60.10;;;;;;5068902;28;20443;-56
2021/09/14 08:58:33;;;;;;;9.40;7.30;;;35.80;60.50;;;;;;5069477;28;20479;-56
2021/09/14 09:00:58;;;;;;;11.67;7.17;;;35.60;60.90;;;;;;5068385;28;20513;-56
2021/09/14 09:03:29;;;;;;;11.37;10.27;;;36.30;60.70;;;;;;5069395;28;20372;-55
2021/09/14 09:05:59;;;;;;;8.60;6.30;;;36.70;59.10;;;;;;5068599;28;20391;-56
2021/09/14 09:08:29;;;;;;;10.00;6.13;;;37.00;58.60;;;;;;5069601;28;20390;-56
2021/09/14 09:11:12;;;;;;;8.05;5.70;;;37.30;57.70;;;;;;5068649;28;20386;-56
2021/09/14 09:13:43;;;;;;;10.60;6.28;;;37.80;56.80;;;;;;5069460;28;20399;-56
2021/09/14 09:16:21;;;;;;;8.63;6.20;;;38.10;56.30;;;;;;5068649;28;20424;-56
2021/09/14 09:19:01;;;;;;;9.18;6.13;;;37.80;56.60;;;;;;5068173;28;20411;-57
2021/09/14 09:21:32;;;;;;;11.97;6.47;;;37.90;54.90;;;;;;5069420;28;20380;-56
2021/09/14 09:24:00;;;;;;;12.43;9.27;;;38.00;54.80;;;;;;5068583;28;20425;-56
2021/09/14 09:26:42;;;;;;;10.88;9.77;;;36.40;56.70;;;;;;5069537;28;20379;-57
2021/09/14 09:29:09;;;;;;;10.65;9.38;;;35.60;57.60;;;;;;5069146;28;20429;-56
2021/09/14 09:31:37;;;;;;;12.10;10.18;;;35.20;58.80;;;;;;5069464;28;20904;-56
2021/09/14 09:34:11;;;;;;;8.20;5.70;;;35.30;58.80;;;;;;5068542;28;20451;-56
2021/09/14 09:36:42;;;;;;;9.43;6.18;;;35.90;58.10;;;;;;5069376;28;20387;-56
2021/09/14 09:39:10;;;;;;;10.43;6.78;;;35.90;58.20;;;;;;5068779;28;20391;-56
2021/09/14 09:41:39;;;;;;;8.80;6.00;;;35.80;58.10;;;;;;5068901;28;20383;-56
2021/09/14 09:44:12;;;;;;;8.00;5.60;;;36.10;57.90;;;;;;5068670;28;20390;-56
2021/09/14 09:46:39;;;;;;;9.40;6.43;;;36.20;58.50;;;;;;5069379;28;20399;-56
2021/09/14 09:49:07;;;;;;;10.82;6.40;;;36.60;57.30;;;;;;5068797;28;20864;-56
2021/09/14 09:51:34;;;;;;;8.10;5.72;;;35.80;57.00;;;;;;5069172;28;20815;-56
2021/09/14 09:54:01;;;;;;;8.87;5.70;;;36.20;56.40;;;;;;5068122;28;20387;-56
2021/09/14 09:56:29;;;;;;;9.40;5.80;;;36.40;55.70;;;;;;5068612;28;20380;-56
2021/09/14 09:58:55;;;;;;;9.10;5.90;;;36.40;55.70;;;;;;5068238;28;20468;-56
2021/09/14 10:01:26;;;;;;;9.50;5.65;;;35.90;56.10;;;;;;5069163;28;20474;-56
2021/09/14 10:04:10;;;;;;;12.10;5.32;;;36.60;55.10;;;;;;5067986;28;20382;-56
2021/09/14 10:06:42;;;;;;;7.90;5.47;;;36.50;55.30;;;;;;5068752;28;20388;-56
2021/09/14 10:09:08;;;;;;;9.17;8.17;;;36.20;55.10;;;;;;5068784;28;20402;-56
2021/09/14 10:11:36;;;;;;;10.23;8.20;;;35.50;56.00;;;;;;5068680;28;20380;-55
2021/09/14 10:14:14;;;;;;;10.10;8.50;;;35.20;56.30;;;;;;5066909;28;21059;-55
2021/09/14 10:16:45;;;;;;;10.52;8.40;;;35.30;56.00;;;;;;5068719;28;20779;-55
2021/09/14 10:19:25;;;;;;;9.77;8.48;;;35.40;55.90;;;;;;5068656;28;20396;-55
2021/09/14 10:22:13;;;;;;;9.60;8.60;;;35.40;55.90;;;;;;5068164;28;20467;-55
2021/09/14 10:24:50;;;;;;;9.48;8.23;;;35.40;55.80;;;;;;5068236;28;20395;-56
2021/09/14 10:27:15;;;;;;;10.60;8.90;;;34.90;57.00;;;;;;5071199;28;20384;-56
2021/09/14 10:29:41;;;;;;;9.50;8.50;;;35.00;57.20;;;;;;5072330;28;20672;-56
2021/09/14 10:32:09;;;;;;;9.93;8.82;;;35.30;57.60;;;;;;5071892;28;20912;-56
2021/09/14 10:34:41;;;;;;;10.57;8.57;;;36.10;56.50;;;;;;5072085;28;20483;-56
2021/09/14 10:37:09;;;;;;;10.60;8.70;;;36.10;55.90;;;;;;5071386;28;20730;-56
2021/09/14 10:39:39;;;;;;;11.20;9.20;;;35.80;56.40;;;;;;5072271;28;20376;-56
2021/09/14 10:42:22;;;;;;;13.95;10.10;;;35.80;57.70;;;;;;5071612;28;20406;-56
2021/09/14 10:44:52;;;;;;;13.00;10.13;;;35.80;58.20;;;;;;5071342;28;20475;-57
2021/09/14 10:47:20;;;;;;;12.52;10.50;;;36.10;58.50;;;;;;5072513;28;20453;-57
2021/09/14 10:49:48;;;;;;;11.98;10.30;;;36.90;57.20;;;;;;5071190;28;20388;-57
2021/09/14 10:52:16;;;;;;;12.70;10.10;;;36.50;57.70;;;;;;5072117;28;20475;-56
2021/09/14 10:54:51;;;;;;;12.85;10.50;;;36.30;58.20;;;;;;5071914;28;20452;-57
2021/09/14 10:57:19;;;;;;;12.20;10.50;;;36.60;57.20;;;;;;5071990;28;20391;-57
2021/09/14 10:59:52;;;;;;;12.00;9.88;;;36.50;57.40;;;;;;5071634;28;20384;-57
2021/09/14 11:02:22;;;;;;;11.45;9.10;;;36.50;57.60;;;;;;5072092;28;20935;-55
2021/09/14 11:04:48;;;;;;;13.20;10.43;;;35.80;58.80;;;;;;5071241;28;20869;-55
2021/09/14 11:07:17;;;;;;;10.95;9.70;;;35.70;59.10;;;;;;5072062;28;20376;-55
2021/09/14 11:09:44;;;;;;;11.32;9.57;;;35.20;59.00;;;;;;5071809;28;20387;-56
2021/09/14 11:12:25;;;;;;;15.63;9.52;;;35.30;58.00;;;;;;5070989;28;20395;-55
2021/09/14 11:14:52;;;;;;;12.73;9.75;;;34.40;58.20;;;;;;5070505;28;20415;-55
2021/09/14 11:17:32;;;;;;;11.30;9.13;;;34.00;60.70;;;;;;5070995;28;20490;-55
2021/09/14 11:20:14;;;;;;;10.30;9.20;;;33.60;59.80;;;;;;5071109;28;20850;-56
2021/09/14 11:22:42;;;;;;;11.05;9.75;;;33.00;59.80;;;;;;5072018;28;20395;-55
2021/09/14 11:25:22;;;;;;;12.00;8.95;;;32.60;61.50;;;;;;5070671;28;20722;-55
2021/09/14 11:27:58;;;;;;;10.95;8.60;;;32.60;61.90;;;;;;5069949;28;20383;-56
2021/09/14 11:30:24;;;;;;;10.98;9.50;;;32.40;63.00;;;;;;5071309;28;20384;-55
2021/09/14 11:32:51;;;;;;;10.50;9.40;;;32.50;62.10;;;;;;5069329;28;20387;-56
2021/09/14 11:35:18;;;;;;;9.82;8.68;;;32.40;62.90;;;;;;5069896;28;20769;-56
2021/09/14 11:37:44;;;;;;;12.13;10.25;;;32.40;62.90;;;;;;5070454;28;20849;-56
2021/09/14 11:40:20;;;;;;;10.70;9.50;;;31.90;63.60;;;;;;5070873;28;20466;-56
2021/09/14 11:43:00;;;;;;;13.18;8.80;;;31.50;65.30;;;;;;5070783;28;20384;-55
2021/09/14 11:45:28;;;;;;;10.35;9.35;;;31.20;65.50;;;;;;5071435;28;20394;-55
2021/09/14 11:47:55;;;;;;;10.18;9.15;;;30.70;66.90;;;;;;5070295;28;20475;-56
2021/09/14 11:50:29;;;;;;;10.93;9.82;;;30.60;67.80;;;;;;5069502;28;20384;-55
2021/09/14 11:53:15;;;;;;;11.35;10.20;;;30.40;68.60;;;;;;5070519;28;20384;-55
2021/09/14 11:55:49;;;;;;;9.70;8.70;;;30.30;69.30;;;;;;5070997;28;20951;-55
2021/09/14 11:58:31;;;;;;;9.27;8.27;;;30.40;68.80;;;;;;5070494;28;20388;-55
2021/09/14 12:01:06;;;;;;;11.13;10.02;;;30.50;69.00;;;;;;5069064;28;20380;-55
2021/09/14 12:03:44;;;;;;;9.90;8.90;;;30.40;68.90;;;;;;5070583;28;20372;-55
2021/09/14 12:06:12;;;;;;;11.35;10.20;;;30.60;69.30;;;;;;5070379;28;20375;-55
2021/09/14 12:08:42;;;;;;;10.38;9.05;;;30.60;69.60;;;;;;5070613;28;20399;-55
2021/09/14 12:11:10;;;;;;;12.30;9.05;;;30.80;68.30;;;;;;5070123;28;20419;-55
2021/09/14 12:13:38;;;;;;;10.93;9.75;;;30.60;69.10;;;;;;5070342;28;20384;-55
2021/09/14 12:16:12;;;;;;;10.80;9.70;;;30.40;69.40;;;;;;5069582;28;20901;-55
2021/09/14 12:18:38;;;;;;;11.83;9.37;;;30.20;70.50;;;;;;5070029;28;20407;-55
2021/09/14 12:21:04;;;;;;;10.57;9.25;;;30.10;71.20;;;;;;5069303;28;20463;-55
2021/09/14 12:23:31;;;;;;;10.80;8.70;;;30.00;71.20;;;;;;5070243;28;20416;-55
2021/09/14 12:25:57;;;;;;;10.63;9.52;;;29.70;72.60;;;;;;5069456;28;20380;-55
2021/09/14 12:28:22;;;;;;;9.70;8.20;;;29.50;74.30;;;;;;5068551;28;20388;-55
2021/09/14 12:30:48;;;;;;;11.87;9.20;;;29.50;74.50;;;;;;5069484;28;20402;-56
2021/09/14 12:33:14;;;;;;;10.30;9.30;;;29.20;75.20;;;;;;5069967;28;20391;-55
2021/09/14 12:35:41;;;;;;;10.27;8.90;;;29.50;75.50;;;;;;5069987;28;20456;-55
2021/09/14 12:38:08;;;;;;;10.80;9.70;;;29.50;76.50;;;;;;5068970;28;20395;-55
2021/09/14 12:40:33;;;;;;;11.73;10.63;;;29.70;75.20;;;;;;5070186;28;20482;-55
2021/09/14 12:42:59;;;;;;;13.77;9.68;;;29.60;75.90;;;;;;5068843;28;20762;-55
2021/09/14 12:45:25;;;;;;;10.43;8.13;;;29.40;78.00;;;;;;5069695;28;20384;-55
2021/09/14 12:47:50;;;;;;;10.00;8.45;;;29.50;77.20;;;;;;5068864;28;20391;-55
2021/09/14 12:50:16;;;;;;;12.55;8.70;;;29.70;78.00;;;;;;5069089;28;20386;-55
2021/09/14 12:52:42;;;;;;;11.05;7.95;;;29.70;77.60;;;;;;5069495;28;20449;-55
2021/09/14 12:55:08;;;;;;;10.40;8.52;;;29.10;78.20;;;;;;5068552;28;20630;-55
2021/09/14 12:57:34;;;;;;;10.33;9.23;;;29.20;80.80;;;;;;5069672;28;20384;-55
2021/09/14 13:00:00;;;;;;;11.65;10.20;;;29.10;81.80;;;;;;5068326;28;20482;-55
2021/09/14 13:02:25;;;;;;;11.07;8.25;;;29.20;81.30;;;;;;5069211;28;20384;-55
2021/09/14 13:04:51;;;;;;;11.27;8.23;;;29.50;80.40;;;;;;5068356;28;20380;-55
2021/09/14 13:07:17;;;;;;;10.10;8.20;;;29.80;79.50;;;;;;5069571;28;20376;-55
2021/09/14 13:09:43;;;;;;;11.00;9.00;;;30.00;78.10;;;;;;5069484;28;20370;-55
2021/09/14 13:12:10;;;;;;;11.40;9.13;;;30.00;78.10;;;;;;5068807;28;20384;-55
2021/09/14 13:17:20;;;;;;;11.05;8.65;;;29.90;78.90;;;;;;5069347;28;20475;-55
2021/09/14 13:19:45;;;;;;;9.30;5.80;;;29.60;81.00;;;;;;5069445;28;20479;-55
2021/09/14 13:22:11;;;;;;;8.90;6.20;;;29.70;80.80;;;;;;5068770;28;20376;-55
2021/09/14 13:24:36;;;;;;;9.50;6.20;;;30.00;80.30;;;;;;5068976;28;20395;-55
2021/09/14 13:27:02;;;;;;;10.33;5.90;;;29.90;80.80;;;;;;5068496;28;20466;-55
2021/09/14 13:29:28;;;;;;;10.43;6.10;;;30.00;81.40;;;;;;5065828;28;20397;-56
2021/09/14 13:31:53;;;;;;;11.23;6.60;;;30.40;80.90;;;;;;5056260;28;20541;-55
2021/09/14 13:34:20;;;;;;;9.70;6.60;;;30.40;80.70;;;;;;5055305;28;20450;-56
2021/09/14 13:36:45;;;;;;;10.40;6.50;;;30.30;81.80;;;;;;5056693;28;20917;-55
2021/09/14 13:39:11;;;;;;;8.20;5.75;;;30.20;83.60;;;;;;5056821;28;20412;-56
2021/09/14 13:41:41;;;;;;;11.60;6.28;;;30.40;83.00;;;;;;5059129;28;20384;-55
2021/09/14 13:46:53;;;;;;;9.73;6.50;;;30.60;81.50;;;;;;5067894;28;20437;-55